KBCB/BCB METAR and TAF weather

Enter ICAO airport designator
Station Type Date Time Source
KBCB METAR 2021/10/24 22:15 UTC NOAA

KBCB 242215Z AUTO 17004KT 10SM CLR 20/11 A3013 RMK AO2 T01950105


Station Type Date Time Source
KBCB Decoded METAR 2021/10/24 22:15 UTC NOAA

Virginia Tech Airport, VA, United States (KBCB) 37-13N 080-25W
Oct 24, 2021 - 06:15 PM EDT / 2021.10.24 2215 UTC
Wind: from the S (170 degrees) at 5 MPH (4 KT):0
Visibility: 10 mile(s):0
Sky conditions: clear
Temperature: 67.1 F (19.5 C)
Dew Point: 50.9 F (10.5 C)
Relative Humidity: 56%
Pressure (altimeter): 30.13 in. Hg (1020 hPa)
ob: KBCB 242215Z AUTO 17004KT 10SM CLR 20/11 A3013 RMK AO2 T01950105
cycle: 22

Station Type Date Time Source
KBCB TAF 2021/10/24 18:22 UTC NOAA

TAF KBCB 241720Z 2418/2518 18008KT P6SM SKC
FM250100 VRB03KT P6SM SCT250
FM250600 VRB03KT P6SM BKN250 WS020/21030KT
FM251300 21008KT P6SM BKN100

Example: see airport list